Time;durP1;ratioP1;P1;durP2;ratioP2;P2;SDS_P1;SDS_P2;PMS_P1;PMS_P2;Temp;Humidity;BMP_temperature;BMP_pressure;BME280_temperature;BME280_humidity;BME280_pressure;Samples;Min_cycle;Max_cycle;Signal;HPM_P1;HPM_P2
2022/08/25 00:00:43;;;;;;;19.70;17.60;;;21.30;99.90;;;;;;5098906;28;20044;-50
2022/08/25 00:03:09;;;;;;;19.17;17.17;;;21.30;99.90;;;;;;5100416;28;20419;-50
2022/08/25 00:05:36;;;;;;;18.30;16.50;;;21.30;99.90;;;;;;5099996;28;20036;-47
2022/08/25 00:08:04;;;;;;;19.88;17.85;;;21.20;99.90;;;;;;5100790;28;20051;-50
2022/08/25 00:10:31;;;;;;;18.67;16.77;;;21.20;99.90;;;;;;5099847;28;20423;-49
2022/08/25 00:12:56;;;;;;;17.80;16.00;;;21.20;99.90;;;;;;5100560;28;20051;-48
2022/08/25 00:15:22;;;;;;;18.52;16.63;;;21.20;99.90;;;;;;5098920;28;20044;-49
2022/08/25 00:17:48;;;;;;;18.33;15.98;;;21.20;99.90;;;;;;5087928;28;20106;-47
2022/08/25 00:20:14;;;;;;;18.42;16.45;;;21.10;99.90;;;;;;5080237;28;20044;-53
2022/08/25 00:22:40;;;;;;;18.48;16.50;;;21.10;99.90;;;;;;5079387;28;20056;-51
2022/08/25 00:25:07;;;;;;;17.80;15.80;;;21.10;99.90;;;;;;5080167;28;20044;-49
2022/08/25 00:27:33;;;;;;;18.00;15.15;;;21.10;99.90;;;;;;5079453;28;20407;-49
2022/08/25 00:29:59;;;;;;;16.13;14.45;;;21.00;99.90;;;;;;5080181;28;20100;-51
2022/08/25 00:32:25;;;;;;;16.02;13.68;;;21.00;99.90;;;;;;5079630;28;20052;-49
2022/08/25 00:34:52;;;;;;;16.55;13.60;;;21.00;99.90;;;;;;5079367;28;20070;-51
2022/08/25 00:37:18;;;;;;;14.80;13.13;;;21.00;99.90;;;;;;5080738;28;20091;-51
2022/08/25 00:39:44;;;;;;;16.35;11.77;;;21.00;99.90;;;;;;5099243;28;20442;-50
2022/08/25 00:42:11;;;;;;;13.88;12.38;;;21.10;99.90;;;;;;5098404;28;20542;-49
2022/08/25 00:44:38;;;;;;;15.55;11.75;;;21.00;99.90;;;;;;5099209;28;20090;-48
2022/08/25 00:47:05;;;;;;;14.60;10.63;;;21.00;99.90;;;;;;5099763;28;20059;-52
2022/08/25 00:49:37;;;;;;;13.40;10.75;;;21.10;99.90;;;;;;5099476;28;20040;-48
2022/08/25 00:52:13;;;;;;;13.52;9.32;;;21.10;99.90;;;;;;5099186;28;20435;-51
2022/08/25 00:54:55;;;;;;;11.93;9.35;;;21.10;99.90;;;;;;5099476;28;20056;-48
2022/08/25 00:57:28;;;;;;;10.25;8.73;;;21.10;99.90;;;;;;5098633;28;20040;-49
2022/08/25 00:59:55;;;;;;;11.98;8.85;;;21.10;99.90;;;;;;5099784;28;20108;-50
2022/08/25 01:02:22;;;;;;;10.18;8.50;;;21.20;99.90;;;;;;5099357;28;20051;-49
2022/08/25 01:04:47;;;;;;;10.77;8.32;;;21.20;99.90;;;;;;5097886;28;20048;-49
2022/08/25 01:07:15;;;;;;;14.02;8.48;;;21.20;99.90;;;;;;5099512;28;20093;-49
2022/08/25 01:09:42;;;;;;;10.77;7.15;;;21.10;99.90;;;;;;5098393;28;20048;-52
2022/08/25 01:12:09;;;;;;;9.65;6.55;;;21.20;99.90;;;;;;5099195;28;20048;-49
2022/08/25 01:14:36;;;;;;;10.52;6.97;;;21.10;99.90;;;;;;5098547;28;20047;-50
2022/08/25 01:17:02;;;;;;;10.70;6.47;;;21.10;99.90;;;;;;5094944;28;20077;-49
2022/08/25 01:19:28;;;;;;;10.18;6.43;;;21.20;99.90;;;;;;5078557;28;20041;-48
2022/08/25 01:21:54;;;;;;;9.88;6.38;;;21.20;99.90;;;;;;5078591;28;20054;-50
2022/08/25 01:25:00;;;;;;;9.32;5.63;;;21.20;99.90;;;;;;5078442;28;20044;-51
2022/08/25 01:27:25;;;;;;;10.05;5.55;;;21.20;99.90;;;;;;5077255;28;20048;-49
2022/08/25 01:29:51;;;;;;;9.45;5.75;;;21.20;99.90;;;;;;5078786;28;20040;-49
2022/08/25 01:32:17;;;;;;;8.02;5.45;;;21.20;99.90;;;;;;5078382;28;20045;-50
2022/08/25 01:34:44;;;;;;;10.65;5.63;;;21.20;99.90;;;;;;5078200;28;20040;-51
2022/08/25 01:37:12;;;;;;;8.63;5.55;;;21.20;99.90;;;;;;5077398;28;20400;-51
2022/08/25 01:39:39;;;;;;;10.23;5.57;;;21.20;99.90;;;;;;5076293;28;20049;-48
2022/08/25 01:42:26;;;;;;;9.30;5.70;;;21.20;99.90;;;;;;5078375;28;20045;-50
2022/08/25 01:44:53;;;;;;;10.00;5.55;;;21.20;99.90;;;;;;5077932;28;20041;-52
2022/08/25 01:47:19;;;;;;;10.38;5.57;;;21.20;99.90;;;;;;5078103;28;20052;-51
2022/08/25 01:49:45;;;;;;;10.18;5.38;;;21.20;99.90;;;;;;5078457;28;20051;-50
2022/08/25 01:52:28;;;;;;;8.93;5.18;;;21.10;99.90;;;;;;5077831;28;20048;-51
2022/08/25 01:54:54;;;;;;;9.32;5.60;;;21.20;99.90;;;;;;5078345;28;20040;-50
2022/08/25 01:57:21;;;;;;;8.30;5.65;;;21.10;99.90;;;;;;5077476;28;20044;-49
2022/08/25 01:59:47;;;;;;;8.45;5.28;;;21.10;99.90;;;;;;5078244;28;20052;-49
2022/08/25 02:02:12;;;;;;;9.55;5.28;;;21.10;99.90;;;;;;5077747;28;20047;-50
2022/08/25 02:04:38;;;;;;;7.80;4.47;;;21.10;99.90;;;;;;5076949;28;20064;-49
2022/08/25 02:07:06;;;;;;;9.75;5.18;;;21.10;99.90;;;;;;5077904;28;20040;-50
2022/08/25 02:09:33;;;;;;;7.53;4.68;;;21.10;99.90;;;;;;5077304;28;20104;-52
2022/08/25 02:11:59;;;;;;;9.57;4.78;;;21.00;99.90;;;;;;5078205;28;20041;-51
2022/08/25 02:14:25;;;;;;;8.35;4.93;;;21.00;99.90;;;;;;5077202;28;20127;-49
2022/08/25 02:16:52;;;;;;;7.32;4.75;;;21.00;99.90;;;;;;5081034;28;20048;-49
2022/08/25 02:19:19;;;;;;;8.65;5.00;;;21.00;99.90;;;;;;5097832;28;20051;-50
2022/08/25 02:21:45;;;;;;;11.07;4.75;;;21.00;99.90;;;;;;5098253;28;20047;-49
2022/08/25 02:24:11;;;;;;;8.75;4.82;;;21.00;99.90;;;;;;5096700;28;20059;-50
2022/08/25 02:26:37;;;;;;;9.18;4.90;;;21.00;99.90;;;;;;5097874;28;20040;-52
2022/08/25 02:29:03;;;;;;;7.22;4.47;;;21.00;99.90;;;;;;5096437;28;20059;-49
2022/08/25 02:31:29;;;;;;;9.60;5.03;;;20.90;99.90;;;;;;5097416;28;20047;-52
2022/08/25 02:33:56;;;;;;;7.88;4.38;;;20.90;99.90;;;;;;5098149;28;20044;-51
2022/08/25 02:36:22;;;;;;;9.23;4.60;;;20.80;99.90;;;;;;5097475;28;20099;-51
2022/08/25 02:38:48;;;;;;;8.63;5.15;;;20.80;99.90;;;;;;5100189;28;20093;-49
2022/08/25 02:41:19;;;;;;;7.75;4.63;;;20.80;99.90;;;;;;5102336;28;20040;-48
2022/08/25 02:43:47;;;;;;;8.45;5.00;;;20.80;99.90;;;;;;5101423;28;20371;-49
2022/08/25 02:46:14;;;;;;;8.15;4.57;;;20.70;99.90;;;;;;5101974;28;20074;-48
2022/08/25 02:48:40;;;;;;;9.55;5.13;;;20.70;99.90;;;;;;5101338;28;20082;-51
2022/08/25 02:51:07;;;;;;;10.52;4.70;;;20.70;99.90;;;;;;5102319;28;20044;-48
2022/08/25 02:53:34;;;;;;;8.48;5.53;;;20.70;99.90;;;;;;5101647;28;20052;-49
2022/08/25 02:56:01;;;;;;;8.13;5.07;;;20.70;99.90;;;;;;5100496;28;20044;-51
2022/08/25 02:58:27;;;;;;;8.85;5.30;;;20.60;99.90;;;;;;5101871;28;20044;-48
2022/08/25 03:00:55;;;;;;;10.52;5.05;;;20.60;99.90;;;;;;5101500;28;20048;-48
2022/08/25 03:03:22;;;;;;;10.50;5.60;;;20.60;99.90;;;;;;5101844;28;20040;-51
2022/08/25 03:05:48;;;;;;;8.90;5.38;;;20.50;99.90;;;;;;5101076;28;20043;-47
2022/08/25 03:08:14;;;;;;;9.63;5.57;;;20.50;99.90;;;;;;5101958;28;20088;-50
2022/08/25 03:10:39;;;;;;;9.82;5.32;;;20.40;99.90;;;;;;5100849;28;20129;-48
2022/08/25 03:13:05;;;;;;;9.68;5.25;;;20.40;99.90;;;;;;5101769;28;20052;-49
2022/08/25 03:15:31;;;;;;;9.63;5.47;;;20.40;99.90;;;;;;5101530;28;20569;-48
2022/08/25 03:17:57;;;;;;;7.80;4.97;;;20.40;99.90;;;;;;5087328;28;20041;-50
2022/08/25 03:20:24;;;;;;;8.98;4.60;;;20.40;99.90;;;;;;5081150;28;20071;-48
2022/08/25 03:22:50;;;;;;;10.10;4.75;;;20.40;99.90;;;;;;5080595;28;20487;-50
2022/08/25 03:28:00;;;;;;;7.35;4.75;;;20.30;99.90;;;;;;5080913;28;20070;-49
2022/08/25 03:30:26;;;;;;;8.10;4.53;;;20.30;99.90;;;;;;5080746;28;20044;-51
2022/08/25 03:32:52;;;;;;;11.32;4.95;;;20.30;99.90;;;;;;5081134;28;20046;-50
2022/08/25 03:35:18;;;;;;;8.88;4.72;;;20.30;99.90;;;;;;5078850;28;20087;-50
2022/08/25 03:37:44;;;;;;;12.77;4.20;;;20.30;99.90;;;;;;5085381;28;20028;-48
2022/08/25 03:40:13;;;;;;;8.40;4.50;;;20.30;99.90;;;;;;5100335;28;20042;-52
2022/08/25 03:42:41;;;;;;;10.15;5.15;;;20.30;99.90;;;;;;5101327;28;20046;-48
2022/08/25 03:45:08;;;;;;;8.32;4.82;;;20.20;99.90;;;;;;5100892;28;20028;-48
2022/08/25 03:47:33;;;;;;;9.38;4.68;;;20.20;99.90;;;;;;5100741;28;20044;-51
2022/08/25 03:49:59;;;;;;;7.90;4.65;;;20.20;99.90;;;;;;5100917;28;20132;-51
2022/08/25 03:52:25;;;;;;;8.13;4.85;;;20.20;99.90;;;;;;5099006;28;20040;-49
2022/08/25 03:54:51;;;;;;;8.75;4.63;;;20.20;99.90;;;;;;5100892;28;20121;-48
2022/08/25 03:57:19;;;;;;;8.70;4.80;;;20.20;99.90;;;;;;5098892;28;20441;-49
2022/08/25 03:59:45;;;;;;;11.63;5.38;;;20.00;99.90;;;;;;5101189;28;20536;-49
2022/08/25 04:02:11;;;;;;;8.35;4.88;;;20.20;99.90;;;;;;5100282;28;20036;-51
2022/08/25 04:04:37;;;;;;;11.80;4.75;;;20.10;99.90;;;;;;5100603;28;20070;-48
2022/08/25 04:07:02;;;;;;;8.80;4.78;;;20.20;99.90;;;;;;5100511;28;20721;-51
2022/08/25 04:09:28;;;;;;;8.38;4.43;;;20.20;99.90;;;;;;5099986;28;20052;-51
2022/08/25 04:11:54;;;;;;;10.35;4.70;;;20.10;99.90;;;;;;5100410;28;20047;-48
2022/08/25 04:14:20;;;;;;;9.25;4.10;;;20.20;99.90;;;;;;5099788;28;20039;-48
2022/08/25 04:16:46;;;;;;;9.60;4.38;;;20.10;99.90;;;;;;5098234;28;20504;-49
2022/08/25 04:19:11;;;;;;;7.93;4.20;;;20.10;99.90;;;;;;5079600;28;20066;-48
2022/08/25 04:21:39;;;;;;;10.23;4.72;;;20.10;99.90;;;;;;5080208;28;20040;-50
2022/08/25 04:24:06;;;;;;;8.93;4.22;;;20.10;99.90;;;;;;5080136;28;20482;-48
2022/08/25 04:26:36;;;;;;;8.80;4.80;;;20.10;99.90;;;;;;5079549;28;20098;-51
2022/08/25 04:29:04;;;;;;;7.50;4.05;;;20.10;99.90;;;;;;5079836;28;20037;-48
2022/08/25 04:31:32;;;;;;;8.70;4.50;;;20.00;99.90;;;;;;5079234;28;20105;-52
2022/08/25 04:34:01;;;;;;;9.80;4.85;;;20.00;99.90;;;;;;5078625;28;20048;-51
2022/08/25 04:36:27;;;;;;;9.10;4.90;;;20.00;99.90;;;;;;5079514;28;20049;-48
2022/08/25 04:38:52;;;;;;;8.35;4.53;;;20.00;99.90;;;;;;5093655;28;20399;-49
2022/08/25 04:41:20;;;;;;;7.93;4.25;;;19.90;99.90;;;;;;5099883;28;20087;-49
2022/08/25 04:43:46;;;;;;;10.50;4.90;;;19.90;99.90;;;;;;5099408;28;20073;-49
2022/08/25 04:46:18;;;;;;;8.15;4.28;;;19.90;99.90;;;;;;5099846;28;20044;-51
2022/08/25 04:48:44;;;;;;;7.65;4.72;;;19.90;99.90;;;;;;5099083;28;20062;-48
2022/08/25 04:51:13;;;;;;;7.47;4.65;;;19.90;99.90;;;;;;5099865;28;20058;-51
2022/08/25 04:53:40;;;;;;;7.30;4.43;;;20.00;99.90;;;;;;5099358;28;20040;-49
2022/08/25 04:56:09;;;;;;;8.43;4.60;;;19.90;99.90;;;;;;5099348;28;20044;-48
2022/08/25 04:58:35;;;;;;;9.32;4.93;;;19.90;99.90;;;;;;5099566;28;20075;-51
2022/08/25 05:01:06;;;;;;;11.45;4.68;;;19.90;99.90;;;;;;5098143;28;20515;-48
2022/08/25 05:03:32;;;;;;;7.22;4.47;;;20.00;99.90;;;;;;5099502;28;20044;-50
2022/08/25 05:05:58;;;;;;;10.50;4.80;;;20.00;99.90;;;;;;5098822;28;20099;-49
2022/08/25 05:08:23;;;;;;;8.43;4.65;;;20.00;99.90;;;;;;5099373;28;20036;-48
2022/08/25 05:10:49;;;;;;;7.93;4.65;;;20.00;99.90;;;;;;5098942;28;20048;-48
2022/08/25 05:13:15;;;;;;;7.97;4.25;;;20.00;99.90;;;;;;5099174;28;20040;-50
2022/08/25 05:15:50;;;;;;;9.75;4.93;;;20.00;99.90;;;;;;5098993;28;20069;-48
2022/08/25 05:18:18;;;;;;;12.95;6.07;;;20.00;99.90;;;;;;5083588;28;20040;-48
2022/08/25 05:20:43;;;;;;;10.70;4.88;;;20.00;99.90;;;;;;5077815;28;20534;-48
2022/08/25 05:23:09;;;;;;;14.18;6.15;;;20.10;99.90;;;;;;5076587;28;20045;-49
2022/08/25 05:25:35;;;;;;;10.07;5.75;;;20.10;99.90;;;;;;5075736;28;20575;-51
2022/08/25 05:28:01;;;;;;;13.48;6.43;;;20.20;99.90;;;;;;5073813;28;20044;-48
2022/08/25 05:30:27;;;;;;;12.63;6.10;;;20.20;99.90;;;;;;5075162;28;20118;-48
2022/08/25 05:32:53;;;;;;;11.27;5.90;;;20.30;99.90;;;;;;5075521;28;20700;-48
2022/08/25 05:35:19;;;;;;;14.27;6.47;;;20.30;99.90;;;;;;5074243;28;20052;-50
2022/08/25 05:37:45;;;;;;;11.82;6.32;;;20.40;99.90;;;;;;5080048;28;20047;-50
2022/08/25 05:40:12;;;;;;;11.52;5.47;;;20.40;99.90;;;;;;5094503;28;20054;-50
2022/08/25 05:42:37;;;;;;;11.50;5.75;;;20.40;99.90;;;;;;5095322;28;20061;-50
2022/08/25 05:45:04;;;;;;;12.65;6.00;;;20.50;99.90;;;;;;5091951;28;20526;-50
2022/08/25 05:47:30;;;;;;;11.35;5.75;;;20.60;99.90;;;;;;5078265;28;20094;-48
2022/08/25 05:49:55;;;;;;;11.05;5.75;;;20.60;99.90;;;;;;5075103;28;20527;-48
2022/08/25 05:52:21;;;;;;;20.88;6.75;;;20.70;99.90;;;;;;5074263;28;20088;-48
2022/08/25 05:54:47;;;;;;;10.10;6.30;;;20.70;99.90;;;;;;5073327;28;20044;-50
2022/08/25 05:57:13;;;;;;;9.43;5.60;;;20.80;99.90;;;;;;5074232;28;20044;-50
2022/08/25 05:59:38;;;;;;;12.35;6.07;;;20.80;99.90;;;;;;5073486;28;20044;-49
2022/08/25 06:04:48;;;;;;;12.10;6.05;;;20.90;99.90;;;;;;5074483;28;20063;-50
2022/08/25 06:07:14;;;;;;;13.10;5.63;;;21.00;99.90;;;;;;5075128;28;20036;-48
2022/08/25 06:09:40;;;;;;;11.93;5.97;;;21.00;99.90;;;;;;5074045;28;20070;-50
2022/08/25 06:12:07;;;;;;;8.90;5.40;;;21.10;99.90;;;;;;5074416;28;20056;-49
2022/08/25 06:14:34;;;;;;;11.35;5.88;;;21.20;99.90;;;;;;5074159;28;20033;-50
2022/08/25 06:17:00;;;;;;;10.25;5.57;;;21.20;99.90;;;;;;5078668;28;20107;-51
2022/08/25 06:19:26;;;;;;;10.10;5.68;;;21.30;99.90;;;;;;5094536;28;20063;-49
2022/08/25 06:21:54;;;;;;;10.75;5.75;;;21.30;99.90;;;;;;5094064;28;20047;-50
2022/08/25 06:24:19;;;;;;;12.15;5.55;;;21.40;99.90;;;;;;5094130;28;20495;-50
2022/08/25 06:26:45;;;;;;;8.45;5.10;;;21.50;99.90;;;;;;5093742;28;20055;-51
2022/08/25 06:29:12;;;;;;;11.32;5.43;;;21.50;99.90;;;;;;5094542;28;20051;-51
2022/08/25 06:31:38;;;;;;;13.68;6.53;;;21.50;99.90;;;;;;5094076;28;20048;-50
2022/08/25 06:34:04;;;;;;;9.75;5.18;;;21.60;99.90;;;;;;5095176;28;20690;-50
2022/08/25 06:36:31;;;;;;;10.13;5.30;;;21.70;99.90;;;;;;5094004;28;20054;-49
2022/08/25 06:38:56;;;;;;;9.43;4.80;;;21.70;99.90;;;;;;5094132;28;20040;-48
2022/08/25 06:41:23;;;;;;;10.20;5.35;;;21.80;99.90;;;;;;5094775;28;20063;-50
2022/08/25 06:43:48;;;;;;;9.80;5.13;;;21.80;99.90;;;;;;5094164;28;20052;-49
2022/08/25 06:46:17;;;;;;;9.68;4.97;;;21.90;99.90;;;;;;5094684;28;20302;-48
2022/08/25 06:48:43;;;;;;;11.80;5.20;;;22.00;99.90;;;;;;5093366;28;20044;-50
2022/08/25 06:51:12;;;;;;;10.98;5.13;;;22.00;99.90;;;;;;5094576;28;20124;-50
2022/08/25 06:53:38;;;;;;;12.43;5.55;;;22.10;99.90;;;;;;5094368;28;20048;-48
2022/08/25 06:56:04;;;;;;;9.48;5.63;;;22.10;99.90;;;;;;5094087;28;20051;-50
2022/08/25 06:58:32;;;;;;;9.18;4.88;;;22.10;99.90;;;;;;5094649;28;20076;-51
2022/08/25 07:01:10;;;;;;;11.93;5.30;;;22.10;99.90;;;;;;5093608;28;20048;-49
2022/08/25 07:03:35;;;;;;;9.95;5.20;;;22.30;99.90;;;;;;5094842;28;20063;-51
2022/08/25 07:06:02;;;;;;;9.60;5.60;;;22.30;99.90;;;;;;5093703;28;20044;-49
2022/08/25 07:08:27;;;;;;;10.20;5.13;;;22.40;99.90;;;;;;5094829;28;20055;-49
2022/08/25 07:10:53;;;;;;;9.00;4.75;;;22.40;99.90;;;;;;5093905;28;20407;-50
2022/08/25 07:13:19;;;;;;;9.13;5.28;;;22.50;99.90;;;;;;5094207;28;20034;-50
2022/08/25 07:15:45;;;;;;;8.90;4.88;;;22.60;99.90;;;;;;5094505;28;20079;-51
2022/08/25 07:18:11;;;;;;;9.43;5.07;;;22.70;99.90;;;;;;5079735;28;20052;-49
2022/08/25 07:20:40;;;;;;;25.75;5.60;;;22.80;99.90;;;;;;5073946;28;20049;-49
2022/08/25 07:23:06;;;;;;;10.40;5.00;;;22.90;99.90;;;;;;5073276;28;20052;-48
2022/08/25 07:25:33;;;;;;;12.98;5.43;;;22.90;99.90;;;;;;5076161;28;20128;-51
2022/08/25 07:27:59;;;;;;;10.20;4.90;;;23.00;99.90;;;;;;5077606;28;20036;-49
2022/08/25 07:30:26;;;;;;;9.35;4.88;;;23.10;99.90;;;;;;5077298;28;20930;-50
2022/08/25 07:32:51;;;;;;;8.48;5.10;;;23.20;99.90;;;;;;5077595;28;20060;-51
2022/08/25 07:35:19;;;;;;;10.02;4.85;;;23.30;99.90;;;;;;5076326;28;20051;-47
2022/08/25 07:37:49;;;;;;;10.63;5.00;;;23.30;99.90;;;;;;5082302;28;20040;-50
2022/08/25 07:40:24;;;;;;;9.13;5.33;;;23.40;99.90;;;;;;5096992;28;20051;-50
2022/08/25 07:42:53;;;;;;;11.77;5.10;;;23.50;99.90;;;;;;5097735;28;20081;-48
2022/08/25 07:45:24;;;;;;;9.90;5.20;;;23.60;99.90;;;;;;5097446;28;20407;-49
2022/08/25 07:47:52;;;;;;;9.93;4.68;;;23.70;99.90;;;;;;5096630;28;20046;-49
2022/08/25 07:50:18;;;;;;;9.13;4.90;;;23.80;99.90;;;;;;5097787;28;20059;-46
2022/08/25 07:52:45;;;;;;;11.90;5.43;;;23.90;99.90;;;;;;5096888;28;20502;-50
2022/08/25 07:55:10;;;;;;;10.25;4.75;;;23.80;99.90;;;;;;5097551;28;20052;-47
2022/08/25 07:57:41;;;;;;;9.30;5.15;;;24.00;99.90;;;;;;5097169;28;20068;-49
2022/08/25 08:00:09;;;;;;;10.02;4.93;;;24.10;99.90;;;;;;5097033;28;20048;-51
2022/08/25 08:02:38;;;;;;;8.20;5.03;;;24.00;99.90;;;;;;5097217;28;20040;-51
2022/08/25 08:05:04;;;;;;;10.40;5.32;;;24.20;99.90;;;;;;5097219;28;20040;-51
2022/08/25 08:07:30;;;;;;;10.10;5.47;;;24.30;99.90;;;;;;5097337;28;20083;-49
2022/08/25 08:09:57;;;;;;;11.00;4.95;;;24.30;99.90;;;;;;5096438;28;20606;-51
2022/08/25 08:12:23;;;;;;;10.02;5.07;;;24.40;99.90;;;;;;5097096;28;20048;-48
2022/08/25 08:14:50;;;;;;;9.63;4.75;;;24.50;99.90;;;;;;5096668;28;20089;-48
2022/08/25 08:17:17;;;;;;;9.82;5.05;;;24.60;99.90;;;;;;5090228;28;20056;-48
2022/08/25 08:19:43;;;;;;;8.77;4.72;;;24.70;99.90;;;;;;5081278;28;20044;-51
2022/08/25 08:22:10;;;;;;;9.80;4.45;;;24.70;99.90;;;;;;5088395;28;20510;-51
2022/08/25 08:24:37;;;;;;;10.68;5.35;;;24.80;99.90;;;;;;5089103;28;20058;-50
2022/08/25 08:27:05;;;;;;;8.98;4.78;;;25.00;99.90;;;;;;5089817;28;20044;-51
2022/08/25 08:29:31;;;;;;;10.25;4.68;;;24.90;99.90;;;;;;5086404;28;20045;-50
2022/08/25 08:31:57;;;;;;;8.15;4.75;;;25.00;99.90;;;;;;5088490;28;20052;-49
2022/08/25 08:34:23;;;;;;;10.77;4.30;;;25.10;99.90;;;;;;5087866;28;20071;-49
2022/08/25 08:36:49;;;;;;;8.43;4.40;;;25.20;99.90;;;;;;5085856;28;20044;-52
2022/08/25 08:39:14;;;;;;;8.45;4.60;;;25.20;99.90;;;;;;5087758;28;20531;-52
2022/08/25 08:44:45;;;;;;;8.02;4.40;;;25.40;99.90;;;;;;5078972;28;20047;-52
2022/08/25 08:47:38;;;;;;;8.73;4.40;;;25.40;99.90;;;;;;5079414;28;20121;-50
2022/08/25 08:50:09;;;;;;;9.07;4.38;;;25.50;99.90;;;;;;5079418;28;20052;-50
2022/08/25 08:52:40;;;;;;;10.50;4.45;;;25.70;99.90;;;;;;5078438;28;20436;-51
2022/08/25 08:55:16;;;;;;;10.05;4.18;;;25.70;99.90;;;;;;5079306;28;20051;-49
2022/08/25 08:57:46;;;;;;;8.20;4.18;;;25.80;99.90;;;;;;5078693;28;20105;-52
2022/08/25 09:00:13;;;;;;;8.70;4.05;;;26.00;99.90;;;;;;5078735;28;20041;-53
2022/08/25 09:03:22;;;;;;;7.40;3.88;;;26.00;99.90;;;;;;5076163;28;20059;-50
2022/08/25 09:05:53;;;;;;;6.75;3.58;;;26.10;99.90;;;;;;5072520;28;20416;-51
2022/08/25 09:08:18;;;;;;;7.63;4.13;;;26.20;99.90;;;;;;5079154;28;20044;-52
2022/08/25 09:11:22;;;;;;;8.90;3.60;;;26.20;99.90;;;;;;5085273;28;20068;-53
2022/08/25 09:14:05;;;;;;;8.38;4.07;;;26.30;99.90;;;;;;5072049;28;20059;-52
2022/08/25 09:16:56;;;;;;;7.35;3.45;;;26.40;99.90;;;;;;5087917;28;20572;-50
2022/08/25 09:19:54;;;;;;;8.52;3.95;;;26.50;99.90;;;;;;5089079;28;20062;-52
2022/08/25 09:22:29;;;;;;;8.32;3.92;;;26.60;99.90;;;;;;5081248;28;20082;-52
2022/08/25 09:25:16;;;;;;;7.82;3.58;;;26.70;99.90;;;;;;5088405;28;20074;-48
2022/08/25 09:28:02;;;;;;;6.30;3.28;;;26.80;99.90;;;;;;5088230;28;20043;-52
2022/08/25 09:30:40;;;;;;;8.32;3.40;;;26.90;99.90;;;;;;5086480;28;20052;-52
2022/08/25 09:33:07;;;;;;;9.30;3.05;;;27.10;99.90;;;;;;5086536;28;20070;-52
2022/08/25 09:35:38;;;;;;;7.30;3.20;;;27.00;99.90;;;;;;5087919;28;20175;-52
2022/08/25 09:38:09;;;;;;;7.05;3.00;;;27.00;99.90;;;;;;5087505;28;20484;-52
2022/08/25 09:40:39;;;;;;;7.20;3.28;;;27.10;99.30;;;;;;5077928;28;20096;-51
2022/08/25 09:43:50;;;;;;;6.28;3.20;;;27.20;99.80;;;;;;5078219;28;20040;-51
2022/08/25 09:46:23;;;;;;;9.02;3.55;;;27.30;99.80;;;;;;5054787;28;20049;-52
2022/08/25 09:48:54;;;;;;;7.00;3.67;;;27.30;99.60;;;;;;5077047;28;20063;-53
2022/08/25 09:51:27;;;;;;;7.15;3.17;;;27.40;99.90;;;;;;5078283;28;20591;-48
2022/08/25 09:53:58;;;;;;;8.85;3.40;;;27.50;98.80;;;;;;5077991;28;20068;-52
2022/08/25 09:56:27;;;;;;;8.75;3.67;;;27.50;99.40;;;;;;5077011;28;20044;-51
2022/08/25 09:58:54;;;;;;;8.70;3.40;;;27.70;99.20;;;;;;5081549;28;20024;-54
2022/08/25 10:01:22;;;;;;;6.72;2.85;;;27.70;99.00;;;;;;5096243;28;20040;-53
2022/08/25 10:03:57;;;;;;;6.72;3.47;;;27.80;97.90;;;;;;5098165;28;20418;-53
2022/08/25 10:06:24;;;;;;;6.72;3.13;;;27.80;97.90;;;;;;5092601;28;20075;-52
2022/08/25 10:08:50;;;;;;;6.82;3.17;;;27.90;98.20;;;;;;5086762;28;20044;-53
2022/08/25 10:11:34;;;;;;;7.00;2.85;;;27.90;98.10;;;;;;5087800;28;20041;-52
2022/08/25 10:14:20;;;;;;;8.10;3.05;;;28.10;97.20;;;;;;5085425;28;20044;-53
2022/08/25 10:16:47;;;;;;;7.97;2.70;;;28.00;96.20;;;;;;5096000;28;20040;-53
2022/08/25 10:19:26;;;;;;;7.85;3.15;;;28.00;96.70;;;;;;5077392;28;20041;-52
2022/08/25 10:22:02;;;;;;;9.07;2.92;;;28.20;97.00;;;;;;5077211;28;20060;-52
2022/08/25 10:24:28;;;;;;;6.75;3.00;;;28.30;96.00;;;;;;5077735;28;20661;-52
2022/08/25 10:27:04;;;;;;;7.60;3.03;;;28.30;96.30;;;;;;5077242;28;20036;-52
2022/08/25 10:29:39;;;;;;;7.00;2.92;;;28.30;96.00;;;;;;5077904;28;20064;-53
2022/08/25 10:32:29;;;;;;;6.20;3.22;;;28.40;96.30;;;;;;5077536;28;20056;-52
2022/08/25 10:34:58;;;;;;;6.95;3.42;;;28.50;96.00;;;;;;5085246;28;20128;-52
2022/08/25 10:37:46;;;;;;;8.48;3.20;;;28.50;96.00;;;;;;5079402;28;20075;-53
2022/08/25 10:40:26;;;;;;;6.45;3.28;;;28.50;96.60;;;;;;5096895;28;20704;-51
2022/08/25 10:43:06;;;;;;;6.75;3.03;;;28.50;95.70;;;;;;5097613;28;20085;-52
2022/08/25 10:45:42;;;;;;;8.48;3.08;;;28.50;95.90;;;;;;5090100;28;20044;-51
2022/08/25 10:48:40;;;;;;;6.40;3.13;;;28.60;96.10;;;;;;5087299;28;20502;-52
2022/08/25 10:51:45;;;;;;;7.95;3.50;;;28.70;96.20;;;;;;5096211;28;20052;-52
2022/08/25 10:54:40;;;;;;;9.13;3.30;;;28.80;96.10;;;;;;5097503;28;20091;-50
2022/08/25 10:57:22;;;;;;;7.38;3.28;;;28.90;96.10;;;;;;5096863;28;20048;-52
2022/08/25 10:59:55;;;;;;;6.22;2.90;;;28.90;95.90;;;;;;5099766;28;20708;-49
2022/08/25 11:02:30;;;;;;;7.43;3.30;;;28.80;95.00;;;;;;5100882;28;20134;-52
2022/08/25 11:05:02;;;;;;;7.78;3.05;;;28.90;95.00;;;;;;5100827;28;20091;-52
2022/08/25 11:07:59;;;;;;;6.05;2.88;;;29.00;94.30;;;;;;5101539;28;20095;-51
2022/08/25 11:10:51;;;;;;;6.40;3.13;;;29.00;94.40;;;;;;5085960;28;20048;-51
2022/08/25 11:13:30;;;;;;;6.75;2.75;;;29.00;94.40;;;;;;5101108;28;20040;-54
2022/08/25 11:16:12;;;;;;;6.85;2.88;;;29.10;94.60;;;;;;5101081;28;20085;-53
2022/08/25 11:19:17;;;;;;;6.95;2.90;;;29.20;94.30;;;;;;5082567;28;20075;-52
2022/08/25 11:22:00;;;;;;;6.60;2.85;;;29.30;94.20;;;;;;5040019;28;20038;-52
2022/08/25 11:24:41;;;;;;;6.10;2.45;;;29.20;93.90;;;;;;5085903;28;20131;-53
2022/08/25 11:27:17;;;;;;;7.13;2.72;;;29.20;93.20;;;;;;5087680;28;20053;-53
2022/08/25 11:29:55;;;;;;;6.65;2.58;;;29.30;93.80;;;;;;5089554;28;20043;-52
2022/08/25 11:32:23;;;;;;;6.47;2.20;;;29.30;92.80;;;;;;5098391;28;20044;-51
2022/08/25 11:34:51;;;;;;;7.15;2.60;;;29.40;92.50;;;;;;5098104;28;20072;-53
2022/08/25 11:37:29;;;;;;;5.63;2.22;;;29.50;92.50;;;;;;5090941;28;20048;-51
2022/08/25 11:39:55;;;;;;;5.90;2.53;;;29.50;92.50;;;;;;5090587;28;20070;-53
2022/08/25 11:43:00;;;;;;;6.60;2.95;;;29.50;92.50;;;;;;5089655;28;20459;-53
2022/08/25 11:45:38;;;;;;;5.95;3.47;;;29.60;93.20;;;;;;5090076;28;20403;-52
2022/08/25 11:48:28;;;;;;;7.53;3.05;;;29.60;93.20;;;;;;5089251;28;20064;-53
2022/08/25 11:50:55;;;;;;;6.30;3.03;;;29.60;93.00;;;;;;5091283;28;20550;-52
2022/08/25 11:53:23;;;;;;;7.95;2.90;;;29.60;93.40;;;;;;5090395;28;20055;-52
2022/08/25 11:55:52;;;;;;;9.40;2.92;;;29.60;93.60;;;;;;5094862;28;20056;-53
2022/08/25 11:58:27;;;;;;;8.07;2.88;;;29.60;93.00;;;;;;5091327;28;20062;-53
2022/08/25 12:00:54;;;;;;;7.53;3.17;;;29.70;92.40;;;;;;5092382;28;20040;-53
2022/08/25 12:03:40;;;;;;;8.85;3.03;;;29.70;93.30;;;;;;5089963;28;20040;-53
2022/08/25 12:06:28;;;;;;;6.50;2.90;;;29.70;93.10;;;;;;5081287;28;20096;-52
2022/08/25 12:09:00;;;;;;;6.13;2.60;;;29.80;93.70;;;;;;5090290;28;20052;-53
2022/08/25 12:11:41;;;;;;;8.25;2.60;;;29.80;92.30;;;;;;5089385;28;20040;-52
2022/08/25 12:14:25;;;;;;;7.15;3.20;;;29.90;91.90;;;;;;5088464;28;20056;-53
2022/08/25 12:16:50;;;;;;;6.47;2.78;;;29.90;91.80;;;;;;5087841;28;20052;-49
2022/08/25 12:19:34;;;;;;;4.95;2.47;;;30.00;91.40;;;;;;5089743;28;20109;-52
2022/08/25 12:22:00;;;;;;;5.80;2.22;;;30.00;90.60;;;;;;5090578;28;20062;-52
2022/08/25 12:24:48;;;;;;;7.28;3.00;;;29.90;91.40;;;;;;5099851;28;20126;-52
2022/08/25 12:27:25;;;;;;;7.53;2.90;;;29.80;91.80;;;;;;5099453;28;20040;-52
2022/08/25 12:30:02;;;;;;;7.70;2.80;;;29.80;91.70;;;;;;5100174;28;20055;-54
2022/08/25 12:32:53;;;;;;;6.75;3.30;;;29.80;92.00;;;;;;5089175;28;20087;-53
2022/08/25 12:35:32;;;;;;;6.05;2.60;;;30.00;90.80;;;;;;5078715;28;20048;-53
2022/08/25 12:38:15;;;;;;;7.57;2.78;;;30.10;90.80;;;;;;5086336;28;20104;-50
2022/08/25 12:40:44;;;;;;;5.55;2.67;;;30.00;90.30;;;;;;5099500;28;20514;-52
2022/08/25 12:43:19;;;;;;;6.82;2.40;;;30.10;90.50;;;;;;5099872;28;20533;-51
2022/08/25 12:46:20;;;;;;;6.43;2.72;;;30.20;90.90;;;;;;5099570;28;20098;-52
2022/08/25 12:48:54;;;;;;;6.63;2.70;;;30.20;90.50;;;;;;5098632;28;20044;-51
2022/08/25 12:51:21;;;;;;;6.80;2.70;;;30.10;90.60;;;;;;5099621;28;20182;-53
2022/08/25 12:53:52;;;;;;;7.40;3.08;;;30.10;90.30;;;;;;5099511;28;20040;-53
2022/08/25 12:56:21;;;;;;;7.15;2.70;;;30.10;90.50;;;;;;5097205;28;20044;-52
2022/08/25 12:58:53;;;;;;;6.97;2.60;;;30.10;90.30;;;;;;5099179;28;20040;-53
2022/08/25 13:01:43;;;;;;;6.75;2.72;;;30.10;90.20;;;;;;5097280;28;20052;-52
2022/08/25 13:04:29;;;;;;;6.90;3.00;;;30.00;89.90;;;;;;5096074;28;20500;-52
2022/08/25 13:07:13;;;;;;;5.88;3.08;;;29.90;90.20;;;;;;5087849;28;20101;-52
2022/08/25 13:10:16;;;;;;;6.22;2.50;;;30.10;90.50;;;;;;5087262;28;20045;-51